createdAt,value
2022-10-26T00:00:23.939Z,45.05
2022-10-26T00:03:27.225Z,40.95
2022-10-26T00:06:30.501Z,40.65
2022-10-26T00:09:33.794Z,46.60
2022-10-26T00:12:38.529Z,47.42
2022-10-26T00:15:43.009Z,44.40
2022-10-26T00:18:47.060Z,49.92
2022-10-26T00:21:50.573Z,44.58
2022-10-26T00:24:54.341Z,42.00
2022-10-26T00:27:58.980Z,47.83
2022-10-26T00:31:03.543Z,42.92
2022-10-26T00:34:07.107Z,45.38
2022-10-26T00:37:10.824Z,38.80
2022-10-26T00:40:14.352Z,40.70
2022-10-26T00:43:37.247Z,44.85
2022-10-26T00:46:40.545Z,46.65
2022-10-26T00:49:46.744Z,45.10
2022-10-26T00:52:51.485Z,44.90
2022-10-26T00:55:55.828Z,44.75
2022-10-26T00:59:05.583Z,45.08
2022-10-26T01:02:09.365Z,41.22
2022-10-26T01:05:13.520Z,44.25
2022-10-26T01:08:18.310Z,47.17
2022-10-26T01:11:22.142Z,42.67
2022-10-26T01:14:29.135Z,38.97
2022-10-26T01:17:47.603Z,46.30
2022-10-26T01:21:15.017Z,39.20
2022-10-26T01:24:46.478Z,42.70
2022-10-26T01:27:52.286Z,34.00
2022-10-26T01:31:01.724Z,39.58
2022-10-26T01:34:10.889Z,44.67
2022-10-26T01:37:16.414Z,48.28
2022-10-26T01:40:26.925Z,41.42
2022-10-26T01:43:34.513Z,38.22
2022-10-26T01:46:41.783Z,39.78
2022-10-26T01:49:48.673Z,41.00
2022-10-26T01:52:52.222Z,35.55
2022-10-26T01:55:56.596Z,36.58
2022-10-26T01:59:32.102Z,38.10
2022-10-26T02:02:58.928Z,36.80
2022-10-26T02:06:12.436Z,40.55
2022-10-26T02:09:24.870Z,31.95
2022-10-26T02:12:35.383Z,36.40
2022-10-26T02:15:48.025Z,34.53
2022-10-26T02:19:00.869Z,37.08
2022-10-26T02:22:10.827Z,30.33
2022-10-26T02:25:19.317Z,24.90
2022-10-26T02:28:30.041Z,31.55
2022-10-26T02:31:34.928Z,32.92
2022-10-26T02:34:41.025Z,34.25
2022-10-26T02:37:46.971Z,32.55
2022-10-26T02:40:52.925Z,30.35
2022-10-26T02:44:01.481Z,26.08
2022-10-26T02:47:04.759Z,31.13
2022-10-26T02:50:10.590Z,26.92
2022-10-26T02:53:23.249Z,31.45
2022-10-26T02:56:30.710Z,36.65
2022-10-26T02:59:37.755Z,37.08
2022-10-26T03:02:46.083Z,34.17
2022-10-26T03:05:53.470Z,32.97
2022-10-26T03:08:56.987Z,35.65
2022-10-26T03:12:00.443Z,29.50
2022-10-26T03:15:04.186Z,31.80
2022-10-26T03:18:07.526Z,32.75
2022-10-26T03:21:12.551Z,29.73
2022-10-26T03:24:16.201Z,33.88
2022-10-26T03:27:19.855Z,30.63
2022-10-26T03:30:23.161Z,27.92
2022-10-26T03:33:27.311Z,34.00
2022-10-26T03:36:33.005Z,31.48
2022-10-26T03:39:36.226Z,32.80
2022-10-26T03:42:40.489Z,37.55
2022-10-26T03:45:44.266Z,33.63
2022-10-26T03:48:47.483Z,35.67
2022-10-26T03:51:52.154Z,28.95
2022-10-26T03:54:55.393Z,27.05
2022-10-26T03:57:58.626Z,31.63
2022-10-26T04:01:01.804Z,32.65
2022-10-26T04:04:05.070Z,35.58
2022-10-26T04:07:09.790Z,36.08
2022-10-26T04:10:13.070Z,34.97
2022-10-26T04:13:16.371Z,37.92
2022-10-26T04:16:19.605Z,38.00
2022-10-26T04:19:22.864Z,35.53
2022-10-26T04:22:27.503Z,39.67
2022-10-26T04:25:33.071Z,41.75
2022-10-26T04:28:36.773Z,43.75
2022-10-26T04:31:41.338Z,41.40
2022-10-26T04:34:44.601Z,45.85
2022-10-26T04:37:49.997Z,43.42
2022-10-26T04:40:53.480Z,45.85
2022-10-26T04:43:57.024Z,46.33
2022-10-26T04:47:06.258Z,46.30
2022-10-26T04:50:11.993Z,47.85
2022-10-26T04:53:16.784Z,53.40
2022-10-26T04:56:19.974Z,49.45
2022-10-26T04:59:23.224Z,57.60
2022-10-26T05:02:26.748Z,54.70
2022-10-26T05:05:31.702Z,62.42
2022-10-26T05:08:36.360Z,65.82
2022-10-26T05:11:39.688Z,66.88
2022-10-26T05:14:42.989Z,64.68
2022-10-26T05:17:46.575Z,71.55
2022-10-26T05:20:50.771Z,74.00
2022-10-26T05:23:55.639Z,69.68
2022-10-26T05:26:59.023Z,68.15
2022-10-26T05:30:03.167Z,70.45
2022-10-26T05:33:07.602Z,77.57
2022-10-26T05:36:11.080Z,76.03
2022-10-26T05:39:15.715Z,72.50
2022-10-26T05:42:20.608Z,85.05
2022-10-26T05:45:23.940Z,124.47
2022-10-26T05:48:27.123Z,76.65
2022-10-26T05:51:30.308Z,85.30
2022-10-26T05:54:34.843Z,86.40
2022-10-26T05:57:38.874Z,95.97
2022-10-26T06:00:51.113Z,102.38
2022-10-26T06:04:11.002Z,101.35
2022-10-26T06:07:16.399Z,106.93
2022-10-26T06:10:22.030Z,109.90
2022-10-26T06:13:25.899Z,98.30
2022-10-26T06:16:39.961Z,112.25
2022-10-26T06:19:57.425Z,99.78
2022-10-26T06:23:19.151Z,102.82
2022-10-26T06:26:34.738Z,101.82
2022-10-26T06:29:49.361Z,104.68
2022-10-26T06:33:01.431Z,100.57
2022-10-26T06:36:23.964Z,110.72
2022-10-26T06:39:32.998Z,106.43
2022-10-26T06:42:38.504Z,108.97
2022-10-26T06:45:44.906Z,110.28
2022-10-26T06:48:57.858Z,111.80
2022-10-26T06:52:03.992Z,112.40
2022-10-26T06:55:14.241Z,109.07
2022-10-26T06:58:20.581Z,107.97
2022-10-26T07:01:24.330Z,108.03
2022-10-26T07:04:27.827Z,107.75
2022-10-26T07:07:33.101Z,97.07
2022-10-26T07:10:38.939Z,95.28
2022-10-26T07:13:45.219Z,103.63
2022-10-26T07:16:48.555Z,99.05
2022-10-26T07:19:51.854Z,92.78
2022-10-26T07:22:55.735Z,88.13
2022-10-26T07:26:00.862Z,75.13
2022-10-26T07:29:05.654Z,67.80
2022-10-26T07:32:09.082Z,63.65
2022-10-26T07:35:12.885Z,66.97
2022-10-26T07:38:16.160Z,65.97
2022-10-26T07:41:19.381Z,65.63
2022-10-26T07:44:24.069Z,62.17
2022-10-26T07:47:27.400Z,61.53
2022-10-26T07:50:30.803Z,58.50
2022-10-26T07:53:33.999Z,60.55
2022-10-26T07:56:37.324Z,152.18
2022-10-26T07:59:41.998Z,65.60
2022-10-26T08:02:45.254Z,49.30
2022-10-26T08:05:51.179Z,47.65
2022-10-26T08:08:54.587Z,50.40
2022-10-26T08:11:57.755Z,46.15
2022-10-26T08:15:02.399Z,44.50
2022-10-26T08:18:06.608Z,47.35
2022-10-26T08:21:15.626Z,39.70
2022-10-26T08:24:24.878Z,42.50
2022-10-26T08:27:28.811Z,35.25
2022-10-26T08:33:40.805Z,34.78
2022-10-26T08:36:47.309Z,34.33
2022-10-26T08:39:53.949Z,35.08
2022-10-26T08:43:05.328Z,34.63
2022-10-26T08:46:14.908Z,30.00
2022-10-26T08:49:22.443Z,23.23
2022-10-26T08:52:31.247Z,28.88
2022-10-26T08:58:52.452Z,58.00
2022-10-26T09:01:57.133Z,29.80
2022-10-26T09:05:01.398Z,32.17
2022-10-26T09:08:14.031Z,32.30
2022-10-26T09:11:29.554Z,42.88
2022-10-26T09:14:43.578Z,83.70
2022-10-26T09:17:58.642Z,37.10
2022-10-26T09:21:13.207Z,35.50
2022-10-26T09:24:22.038Z,33.95
2022-10-26T09:27:29.180Z,30.88
2022-10-26T09:30:32.776Z,36.22
2022-10-26T09:33:40.560Z,36.25
2022-10-26T09:36:43.842Z,34.65
2022-10-26T09:39:53.347Z,31.42
2022-10-26T09:43:01.725Z,36.83
2022-10-26T09:46:05.145Z,37.38
2022-10-26T09:49:13.913Z,32.33
2022-10-26T09:52:17.409Z,31.80
2022-10-26T09:55:22.861Z,34.72
2022-10-26T09:58:29.846Z,38.33
2022-10-26T10:01:38.297Z,35.85
2022-10-26T10:04:49.310Z,35.22
2022-10-26T10:07:52.853Z,33.58
2022-10-26T10:10:58.900Z,33.40
2022-10-26T10:14:09.462Z,38.95
2022-10-26T10:17:22.484Z,32.78
2022-10-26T10:20:30.041Z,33.92
2022-10-26T10:23:34.737Z,32.15
2022-10-26T10:26:57.801Z,60.90
2022-10-26T10:30:21.666Z,32.13
2022-10-26T10:33:32.849Z,32.17
2022-10-26T10:36:37.495Z,27.67
2022-10-26T10:39:42.901Z,36.85
2022-10-26T10:42:48.249Z,31.48
2022-10-26T10:45:55.845Z,31.60
2022-10-26T10:49:05.445Z,36.42
2022-10-26T10:52:23.621Z,33.80
2022-10-26T10:55:27.325Z,28.48
2022-10-26T10:58:36.015Z,27.38
2022-10-26T11:01:41.543Z,33.35
2022-10-26T11:05:02.049Z,36.47
2022-10-26T11:08:09.682Z,27.02
2022-10-26T11:11:16.742Z,28.33
2022-10-26T11:14:25.089Z,24.10
2022-10-26T11:17:32.713Z,18.25
2022-10-26T11:20:39.780Z,20.80
2022-10-26T11:23:50.728Z,18.02
2022-10-26T11:26:57.838Z,17.73
2022-10-26T11:30:06.026Z,17.50
2022-10-26T11:33:16.655Z,14.73
2022-10-26T11:36:23.567Z,15.98
2022-10-26T11:39:37.656Z,17.73
2022-10-26T11:42:46.110Z,16.73
2022-10-26T11:49:11.815Z,16.02
2022-10-26T11:52:19.415Z,19.90
2022-10-26T11:55:25.044Z,17.15
2022-10-26T11:58:29.795Z,15.30
2022-10-26T12:01:35.065Z,15.90
2022-10-26T12:04:39.686Z,16.20
2022-10-26T12:07:48.119Z,16.73
2022-10-26T12:11:02.673Z,14.57
2022-10-26T12:14:15.855Z,18.30
2022-10-26T12:17:24.865Z,17.75
2022-10-26T12:21:03.698Z,26.48
2022-10-26T12:24:26.811Z,17.55
2022-10-26T12:27:51.970Z,18.88
2022-10-26T12:31:15.172Z,14.55
2022-10-26T12:34:25.598Z,14.27
2022-10-26T12:37:37.875Z,33.10
2022-10-26T12:40:44.925Z,17.08
2022-10-26T12:43:49.982Z,22.67
2022-10-26T12:46:53.495Z,17.65
2022-10-26T12:50:00.821Z,25.25
2022-10-26T12:53:12.048Z,19.67
2022-10-26T12:56:21.385Z,18.08
2022-10-26T12:59:31.959Z,18.65
2022-10-26T13:02:52.356Z,16.48
2022-10-26T13:06:18.908Z,17.15
2022-10-26T13:09:24.468Z,20.45
2022-10-26T13:12:29.095Z,17.75
2022-10-26T13:15:39.814Z,14.60
2022-10-26T13:18:45.028Z,16.80
2022-10-26T13:21:50.313Z,16.65
2022-10-26T13:24:56.459Z,21.50
2022-10-26T13:28:06.092Z,17.92
2022-10-26T13:31:18.431Z,11.35
2022-10-26T13:34:23.749Z,24.27
2022-10-26T13:37:30.264Z,24.02
2022-10-26T13:40:34.463Z,22.02
2022-10-26T13:43:38.639Z,20.35
2022-10-26T13:46:43.646Z,23.00
2022-10-26T13:49:49.375Z,18.92
2022-10-26T13:52:55.667Z,22.08
2022-10-26T13:56:05.722Z,24.52
2022-10-26T13:59:12.080Z,21.50
2022-10-26T14:02:24.655Z,21.00
2022-10-26T14:05:28.166Z,21.40
2022-10-26T14:08:31.583Z,20.90
2022-10-26T14:11:38.390Z,20.10
2022-10-26T14:14:42.263Z,20.88
2022-10-26T14:17:51.901Z,25.70
2022-10-26T14:20:59.732Z,23.55
2022-10-26T14:24:07.639Z,23.00
2022-10-26T14:27:17.075Z,34.03
2022-10-26T14:30:25.909Z,22.33
2022-10-26T14:33:30.669Z,26.52
2022-10-26T14:36:40.043Z,26.63
2022-10-26T14:39:45.846Z,34.30
2022-10-26T14:42:51.528Z,35.63
2022-10-26T14:45:57.361Z,30.10
2022-10-26T14:49:03.979Z,29.48
2022-10-26T14:52:08.200Z,35.92
2022-10-26T14:55:16.100Z,44.50
2022-10-26T14:58:26.736Z,44.88
2022-10-26T15:01:36.549Z,48.17
2022-10-26T15:04:43.706Z,39.03
2022-10-26T15:07:47.545Z,55.20
2022-10-26T15:10:51.872Z,58.88
2022-10-26T15:13:55.861Z,63.08
2022-10-26T15:17:00.866Z,66.85
2022-10-26T15:20:07.683Z,63.60
2022-10-26T15:23:15.699Z,60.97
2022-10-26T15:26:19.187Z,56.30
2022-10-26T15:29:41.218Z,58.55
2022-10-26T15:32:44.573Z,52.65
2022-10-26T15:35:49.279Z,65.53
2022-10-26T15:38:56.243Z,66.35
2022-10-26T15:42:00.251Z,74.53
2022-10-26T15:45:04.273Z,68.32
2022-10-26T15:48:25.665Z,80.82
2022-10-26T15:51:33.098Z,83.82
2022-10-26T15:54:36.310Z,88.82
2022-10-26T15:57:40.219Z,99.07
2022-10-26T16:00:43.525Z,123.65
2022-10-26T16:03:47.050Z,129.07
2022-10-26T16:06:51.710Z,136.70
2022-10-26T16:10:04.994Z,122.47
2022-10-26T16:13:13.970Z,127.53
2022-10-26T16:16:18.575Z,173.23
2022-10-26T16:19:31.125Z,182.05
2022-10-26T16:22:38.330Z,161.07
2022-10-26T16:25:44.528Z,153.18
2022-10-26T16:28:47.994Z,164.50
2022-10-26T16:31:51.426Z,153.10
2022-10-26T16:34:54.724Z,144.48
2022-10-26T16:37:59.928Z,129.85
2022-10-26T16:41:04.267Z,112.28
2022-10-26T16:44:08.040Z,120.68
2022-10-26T16:47:11.905Z,132.25
2022-10-26T16:50:15.569Z,149.98
2022-10-26T16:53:20.677Z,156.52
2022-10-26T16:56:26.113Z,131.50
2022-10-26T16:59:30.282Z,146.32
2022-10-26T17:02:33.740Z,137.32
2022-10-26T17:05:37.225Z,133.65
2022-10-26T17:08:42.155Z,123.63
2022-10-26T17:11:47.535Z,124.43
2022-10-26T17:14:51.420Z,128.77
2022-10-26T17:17:56.794Z,127.97
2022-10-26T17:21:01.713Z,148.70
2022-10-26T17:24:07.681Z,141.75
2022-10-26T17:27:11.938Z,142.50
2022-10-26T17:30:15.891Z,130.73
2022-10-26T17:33:24.115Z,134.15
2022-10-26T17:36:31.784Z,134.35
2022-10-26T17:39:40.122Z,136.63
2022-10-26T17:42:44.103Z,111.07
2022-10-26T17:48:57.077Z,120.10
2022-10-26T17:52:00.680Z,123.55
2022-10-26T17:55:06.112Z,117.47
2022-10-26T17:58:10.056Z,123.47
2022-10-26T18:01:14.924Z,134.40
2022-10-26T18:04:18.429Z,140.40
2022-10-26T18:07:21.949Z,156.20
2022-10-26T18:10:37.553Z,160.63
2022-10-26T18:13:41.740Z,152.02
2022-10-26T18:16:45.299Z,161.32
2022-10-26T18:19:48.850Z,169.05
2022-10-26T18:22:52.351Z,172.30
2022-10-26T18:26:08.342Z,155.48
2022-10-26T18:29:14.879Z,168.85
2022-10-26T18:32:18.226Z,178.52
2022-10-26T18:35:21.609Z,207.70
2022-10-26T18:38:24.918Z,192.15
2022-10-26T18:41:29.611Z,183.25
2022-10-26T18:44:32.890Z,180.73
2022-10-26T18:47:36.309Z,184.00
2022-10-26T18:50:39.651Z,171.65
2022-10-26T18:53:44.471Z,170.95
2022-10-26T18:56:49.695Z,180.90
2022-10-26T18:59:55.006Z,213.75
2022-10-26T19:02:59.483Z,225.95
2022-10-26T19:06:10.181Z,233.70
2022-10-26T19:09:14.646Z,246.32
2022-10-26T19:12:19.597Z,252.70
2022-10-26T19:15:23.250Z,253.77
2022-10-26T19:18:29.252Z,272.63
2022-10-26T19:21:33.294Z,260.13
2022-10-26T19:24:36.906Z,253.52
2022-10-26T19:27:41.742Z,244.27
2022-10-26T19:30:45.074Z,216.98
2022-10-26T19:33:48.503Z,218.70
2022-10-26T19:36:51.822Z,200.82
2022-10-26T19:39:55.238Z,203.63
2022-10-26T19:43:00.180Z,177.57
2022-10-26T19:46:08.787Z,179.55
2022-10-26T19:49:13.691Z,177.82
2022-10-26T19:55:20.482Z,166.35
2022-10-26T19:58:25.816Z,163.20
2022-10-26T20:01:29.366Z,151.52
2022-10-26T20:04:32.874Z,156.18
2022-10-26T20:07:36.803Z,149.23
2022-10-26T20:10:42.810Z,145.77
2022-10-26T20:13:48.747Z,149.23
2022-10-26T20:17:01.189Z,140.13
2022-10-26T20:20:05.213Z,151.55
2022-10-26T20:23:10.640Z,148.73
2022-10-26T20:26:18.689Z,146.27
2022-10-26T20:29:23.593Z,140.77
2022-10-26T20:32:28.365Z,135.70
2022-10-26T20:35:33.092Z,147.18
2022-10-26T20:38:37.086Z,144.43
2022-10-26T20:41:43.564Z,156.07
2022-10-26T20:44:47.662Z,153.73
2022-10-26T20:47:54.546Z,142.30
2022-10-26T20:51:04.731Z,156.32
2022-10-26T20:54:16.778Z,157.40
2022-10-26T20:57:26.828Z,163.50
2022-10-26T21:00:33.391Z,149.02
2022-10-26T21:03:38.243Z,137.95
2022-10-26T21:06:41.619Z,133.88
2022-10-26T21:09:44.890Z,148.35
2022-10-26T21:12:48.809Z,148.35
2022-10-26T21:15:52.429Z,145.57
2022-10-26T21:18:57.209Z,137.93
2022-10-26T21:22:00.518Z,146.48
2022-10-26T21:25:03.759Z,130.70
2022-10-26T21:28:07.991Z,133.77
2022-10-26T21:31:12.973Z,149.57
2022-10-26T21:34:17.635Z,145.90
2022-10-26T21:37:21.033Z,153.07
2022-10-26T21:40:24.211Z,151.00
2022-10-26T21:43:27.567Z,156.13
2022-10-26T21:46:30.794Z,154.52
2022-10-26T21:49:35.471Z,129.52
2022-10-26T21:52:38.713Z,137.55
2022-10-26T21:55:41.921Z,135.70
2022-10-26T21:58:45.600Z,132.38
2022-10-26T22:01:48.971Z,143.18
2022-10-26T22:04:54.110Z,117.63
2022-10-26T22:07:57.777Z,122.15
2022-10-26T22:11:05.874Z,133.68
2022-10-26T22:14:09.290Z,122.03
2022-10-26T22:17:12.636Z,120.68
2022-10-26T22:20:17.725Z,117.72
2022-10-26T22:23:20.943Z,126.15
2022-10-26T22:26:25.516Z,125.43
2022-10-26T22:29:28.746Z,122.05
2022-10-26T22:32:32.142Z,119.68
2022-10-26T22:35:36.735Z,107.45
2022-10-26T22:38:40.489Z,109.53
2022-10-26T22:41:44.137Z,109.50
2022-10-26T22:44:47.458Z,118.13
2022-10-26T22:47:50.652Z,139.60
2022-10-26T22:50:55.236Z,121.07
2022-10-26T22:54:00.121Z,120.18
2022-10-26T22:57:03.543Z,117.15
2022-10-26T23:00:08.593Z,122.55
2022-10-26T23:03:11.949Z,117.15
2022-10-26T23:06:18.763Z,122.22
2022-10-26T23:09:22.149Z,123.43
2022-10-26T23:12:25.446Z,118.05
2022-10-26T23:15:28.635Z,109.30
2022-10-26T23:18:31.804Z,107.80
2022-10-26T23:21:36.727Z,117.10
2022-10-26T23:24:39.938Z,117.40
2022-10-26T23:27:43.149Z,110.10
2022-10-26T23:30:46.541Z,111.80
2022-10-26T23:33:51.882Z,113.35
2022-10-26T23:36:56.606Z,114.03
2022-10-26T23:40:00.057Z,119.32
2022-10-26T23:43:03.825Z,106.82
2022-10-26T23:46:07.096Z,106.72
2022-10-26T23:49:10.267Z,102.78
2022-10-26T23:52:14.953Z,110.47
2022-10-26T23:55:18.472Z,103.22
2022-10-26T23:58:25.382Z,98.03
